createdAt,value
2017-12-24T00:00:47.279Z,1016.05
2017-12-24T00:01:47.302Z,1016.11
2017-12-24T00:02:47.324Z,1016.16
2017-12-24T00:03:47.349Z,1016.11
2017-12-24T00:05:08.395Z,1016.07
2017-12-24T00:05:47.391Z,1016.08
2017-12-24T00:06:47.416Z,1016.10
2017-12-24T00:07:47.441Z,1016.03
2017-12-24T00:08:47.462Z,1016.01
2017-12-24T00:09:47.490Z,1015.98
2017-12-24T00:11:08.549Z,1015.96
2017-12-24T00:11:47.560Z,1015.85
2017-12-24T00:12:47.559Z,1015.79
2017-12-24T00:13:47.586Z,1015.92
2017-12-24T00:14:47.608Z,1015.98
2017-12-24T00:15:47.621Z,1016.02
2017-12-24T00:17:08.659Z,1015.98
2017-12-24T00:17:47.673Z,1015.98
2017-12-24T00:18:47.695Z,1016.04
2017-12-24T00:19:47.716Z,1016.11
2017-12-24T00:20:47.740Z,1016.03
2017-12-24T00:21:47.766Z,1016.04
2017-12-24T00:23:08.805Z,1016.07
2017-12-24T00:23:47.811Z,1015.97
2017-12-24T00:24:47.848Z,1016.06
2017-12-24T00:25:47.870Z,1016.02
2017-12-24T00:26:47.883Z,1015.97
2017-12-24T00:27:47.916Z,1015.99
2017-12-24T00:29:08.959Z,1016.10
2017-12-24T00:29:47.952Z,1016.04
2017-12-24T00:30:47.976Z,1016.15
2017-12-24T00:31:48.010Z,1016.09
2017-12-24T00:32:48.018Z,1016.13
2017-12-24T00:33:48.058Z,1016.11
2017-12-24T00:35:09.091Z,1016.10
2017-12-24T00:35:48.106Z,1016.12
2017-12-24T00:36:48.113Z,1016.18
2017-12-24T00:37:48.138Z,1016.09
2017-12-24T00:38:48.158Z,1016.07
2017-12-24T00:39:48.190Z,1016.08
2017-12-24T00:41:09.239Z,1016.08
2017-12-24T00:41:48.224Z,1016.12
2017-12-24T00:42:48.266Z,1016.17
2017-12-24T00:43:48.269Z,1016.15
2017-12-24T00:44:48.328Z,1016.25
2017-12-24T00:45:48.317Z,1016.35
2017-12-24T00:47:09.355Z,1016.30
2017-12-24T00:47:48.418Z,1016.18
2017-12-24T00:48:48.400Z,1016.15
2017-12-24T00:49:48.421Z,1016.23
2017-12-24T00:50:48.437Z,1016.23
2017-12-24T00:51:48.472Z,1016.26
2017-12-24T00:53:09.503Z,1016.28
2017-12-24T00:53:48.506Z,1016.32
2017-12-24T00:54:48.540Z,1016.24
2017-12-24T00:55:48.558Z,1016.16
2017-12-24T00:56:48.600Z,1016.15
2017-12-24T00:57:48.601Z,1016.21
2017-12-24T00:59:09.652Z,1016.16
2017-12-24T00:59:48.646Z,1016.22
2017-12-24T01:00:48.701Z,1016.23
2017-12-24T01:01:48.700Z,1016.22
2017-12-24T01:02:48.710Z,1016.17
2017-12-24T01:03:48.739Z,1016.22
2017-12-24T01:05:09.786Z,1016.28
2017-12-24T01:05:48.782Z,1016.33
2017-12-24T01:06:48.803Z,1016.29
2017-12-24T01:07:48.844Z,1016.29
2017-12-24T01:08:48.858Z,1016.27
2017-12-24T01:09:48.898Z,1016.24
2017-12-24T01:11:09.918Z,1016.13
2017-12-24T01:11:48.919Z,1016.14
2017-12-24T01:12:48.953Z,1016.08
2017-12-24T01:13:48.964Z,1016.10
2017-12-24T01:14:48.997Z,1016.14
2017-12-24T01:15:49.035Z,1016.15
2017-12-24T01:17:10.053Z,1016.22
2017-12-24T01:17:49.072Z,1016.18
2017-12-24T01:18:49.096Z,1016.03
2017-12-24T01:19:49.103Z,1016.09
2017-12-24T01:20:49.133Z,1016.19
2017-12-24T01:21:49.159Z,1016.22
2017-12-24T01:23:10.260Z,1016.23
2017-12-24T01:23:49.204Z,1016.17
2017-12-24T01:24:49.237Z,1016.27
2017-12-24T01:25:49.246Z,1016.16
2017-12-24T01:26:49.279Z,1016.11
2017-12-24T01:27:49.301Z,1016.17
2017-12-24T01:29:10.329Z,1016.13
2017-12-24T01:29:49.345Z,1016.17
2017-12-24T01:30:49.419Z,1016.25
2017-12-24T01:31:49.406Z,1016.27
2017-12-24T01:32:49.425Z,1016.38
2017-12-24T01:33:49.442Z,1016.42
2017-12-24T01:35:10.472Z,1016.28
2017-12-24T01:35:49.500Z,1016.33
2017-12-24T01:36:49.500Z,1016.29
2017-12-24T01:37:49.534Z,1016.32
2017-12-24T01:38:49.550Z,1016.33
2017-12-24T01:39:49.580Z,1016.34
2017-12-24T01:41:10.613Z,1016.37
2017-12-24T01:41:49.616Z,1016.44
2017-12-24T01:42:49.642Z,1016.31
2017-12-24T01:43:49.696Z,1016.26
2017-12-24T01:44:49.682Z,1016.18
2017-12-24T01:45:49.725Z,1016.21
2017-12-24T01:47:10.758Z,1016.31
2017-12-24T01:47:49.766Z,1016.25
2017-12-24T01:48:49.786Z,1016.24
2017-12-24T01:49:49.800Z,1016.15
2017-12-24T01:50:49.840Z,1016.24
2017-12-24T01:51:49.848Z,1016.21
2017-12-24T01:53:10.895Z,1016.22
2017-12-24T01:53:49.903Z,1016.28
2017-12-24T01:54:50.049Z,1016.10
2017-12-24T01:55:49.962Z,1016.08
2017-12-24T01:56:50.022Z,1016.10
2017-12-24T01:57:49.993Z,1016.00
2017-12-24T01:59:11.031Z,1016.04
2017-12-24T01:59:50.037Z,1015.84
2017-12-24T02:00:50.114Z,1015.98
2017-12-24T02:01:50.078Z,1015.87
2017-12-24T02:02:50.103Z,1015.75
2017-12-24T02:03:50.132Z,1015.77
2017-12-24T02:05:11.184Z,1015.69
2017-12-24T02:05:50.310Z,1015.61
2017-12-24T02:06:50.209Z,1015.49
2017-12-24T02:07:50.322Z,1015.53
2017-12-24T02:08:50.241Z,1015.40
2017-12-24T02:09:50.276Z,1015.40
2017-12-24T02:11:11.318Z,1015.41
2017-12-24T02:11:50.326Z,1015.49
2017-12-24T02:12:50.350Z,1015.43
2017-12-24T02:13:50.366Z,1015.51
2017-12-24T02:14:50.388Z,1015.54
2017-12-24T02:15:50.416Z,1015.58
2017-12-24T02:17:11.459Z,1015.67
2017-12-24T02:17:50.462Z,1015.59
2017-12-24T02:18:50.483Z,1015.54
2017-12-24T02:19:50.514Z,1015.55
2017-12-24T02:20:50.520Z,1015.59
2017-12-24T02:21:50.550Z,1015.53
2017-12-24T02:23:11.582Z,1015.50
2017-12-24T02:23:50.598Z,1015.48
2017-12-24T02:24:50.627Z,1015.52
2017-12-24T02:25:50.643Z,1015.52
2017-12-24T02:26:50.675Z,1015.56
2017-12-24T02:27:50.691Z,1015.49
2017-12-24T02:29:11.756Z,1015.47
2017-12-24T02:29:50.741Z,1015.60
2017-12-24T02:30:50.764Z,1015.45
2017-12-24T02:31:50.781Z,1015.43
2017-12-24T02:32:50.819Z,1015.39
2017-12-24T02:33:50.826Z,1015.53
2017-12-24T02:35:11.869Z,1015.43
2017-12-24T02:35:50.878Z,1015.41
2017-12-24T02:36:50.896Z,1015.36
2017-12-24T02:37:50.921Z,1015.40
2017-12-24T02:38:50.949Z,1015.38
2017-12-24T02:39:50.967Z,1015.24
2017-12-24T02:41:12.012Z,1015.30
2017-12-24T02:41:51.019Z,1015.38
2017-12-24T02:42:51.036Z,1015.34
2017-12-24T02:43:51.065Z,1015.28
2017-12-24T02:44:51.077Z,1015.24
2017-12-24T02:45:51.114Z,1015.35
2017-12-24T02:47:12.145Z,1015.38
2017-12-24T02:47:51.153Z,1015.32
2017-12-24T02:48:51.182Z,1015.33
2017-12-24T02:49:51.193Z,1015.43
2017-12-24T02:50:51.229Z,1015.39
2017-12-24T02:51:51.280Z,1015.41
2017-12-24T02:53:12.351Z,1015.27
2017-12-24T02:53:51.295Z,1015.33
2017-12-24T02:54:51.327Z,1015.31
2017-12-24T02:55:51.347Z,1015.34
2017-12-24T02:56:51.366Z,1015.37
2017-12-24T02:57:51.388Z,1015.43
2017-12-24T02:59:12.433Z,1015.41
2017-12-24T02:59:51.435Z,1015.38
2017-12-24T03:00:51.462Z,1015.35
2017-12-24T03:01:51.482Z,1015.35
2017-12-24T03:02:51.507Z,1015.39
2017-12-24T03:03:51.529Z,1015.32
2017-12-24T03:05:12.571Z,1015.55
2017-12-24T03:05:51.580Z,1015.33
2017-12-24T03:06:51.610Z,1015.39
2017-12-24T03:07:51.619Z,1015.47
2017-12-24T03:08:51.651Z,1015.57
2017-12-24T03:09:51.683Z,1015.52
2017-12-24T03:11:12.706Z,1015.50
2017-12-24T03:11:51.716Z,1015.48
2017-12-24T03:12:51.740Z,1015.52
2017-12-24T03:13:51.763Z,1015.51
2017-12-24T03:14:51.799Z,1015.52
2017-12-24T03:15:51.824Z,1015.53
2017-12-24T03:17:12.845Z,1015.55
2017-12-24T03:17:51.922Z,1015.52
2017-12-24T03:18:51.891Z,1015.52
2017-12-24T03:19:51.903Z,1015.51
2017-12-24T03:20:51.926Z,1015.52
2017-12-24T03:21:51.954Z,1015.62
2017-12-24T03:23:12.990Z,1015.46
2017-12-24T03:23:51.997Z,1015.46
2017-12-24T03:24:52.018Z,1015.55
2017-12-24T03:25:52.049Z,1015.43
2017-12-24T03:26:52.068Z,1015.38
2017-12-24T03:27:52.093Z,1015.44
2017-12-24T03:29:13.130Z,1015.29
2017-12-24T03:29:52.141Z,1015.32
2017-12-24T03:30:52.154Z,1015.34
2017-12-24T03:31:52.178Z,1015.37
2017-12-24T03:32:52.202Z,1015.39
2017-12-24T03:33:52.232Z,1015.37
2017-12-24T03:35:13.274Z,1015.30
2017-12-24T03:35:52.273Z,1015.36
2017-12-24T03:36:52.293Z,1015.45
2017-12-24T03:37:52.316Z,1015.36
2017-12-24T03:38:52.345Z,1015.39
2017-12-24T03:39:52.374Z,1015.35
2017-12-24T03:41:13.406Z,1015.31
2017-12-24T03:41:52.412Z,1015.39
2017-12-24T03:42:52.437Z,1015.46
2017-12-24T03:43:52.457Z,1015.36
2017-12-24T03:44:52.480Z,1015.30
2017-12-24T03:45:52.502Z,1015.30
2017-12-24T03:47:13.552Z,1015.31
2017-12-24T03:47:52.550Z,1015.27
2017-12-24T03:48:52.582Z,1015.33
2017-12-24T03:49:52.601Z,1015.32
2017-12-24T03:50:52.626Z,1015.30
2017-12-24T03:51:52.646Z,1015.27
2017-12-24T03:53:13.686Z,1015.31
2017-12-24T03:53:52.703Z,1015.35
2017-12-24T03:54:52.720Z,1015.27
2017-12-24T03:55:52.742Z,1015.19
2017-12-24T03:56:52.766Z,1015.31
2017-12-24T03:57:52.786Z,1015.16
2017-12-24T03:59:13.825Z,1015.30
2017-12-24T03:59:52.843Z,1015.14
2017-12-24T04:00:52.859Z,1015.25
2017-12-24T04:01:52.884Z,1015.34
2017-12-24T04:02:52.904Z,1015.31
2017-12-24T04:03:52.936Z,1015.24
2017-12-24T04:05:13.968Z,1015.23
2017-12-24T04:05:52.973Z,1015.33
2017-12-24T04:06:53.002Z,1015.30
2017-12-24T04:07:53.033Z,1015.33
2017-12-24T04:08:53.043Z,1015.27
2017-12-24T04:09:53.070Z,1015.38
2017-12-24T04:11:14.113Z,1015.41
2017-12-24T04:11:53.122Z,1015.32
2017-12-24T04:12:53.142Z,1015.32
2017-12-24T04:13:53.161Z,1015.34
2017-12-24T04:14:53.189Z,1015.37
2017-12-24T04:15:53.213Z,1015.33
2017-12-24T04:17:14.258Z,1015.36
2017-12-24T04:17:53.267Z,1015.42
2017-12-24T04:18:53.283Z,1015.40
2017-12-24T04:19:53.305Z,1015.27
2017-12-24T04:20:53.324Z,1015.37
2017-12-24T04:21:53.353Z,1015.42
2017-12-24T04:23:14.398Z,1015.37
2017-12-24T04:23:53.400Z,1015.48
2017-12-24T04:24:53.420Z,1015.50
2017-12-24T04:25:53.462Z,1015.46
2017-12-24T04:26:53.468Z,1015.54
2017-12-24T04:27:53.488Z,1015.52
2017-12-24T04:29:14.526Z,1015.59
2017-12-24T04:29:53.535Z,1015.61
2017-12-24T04:30:53.561Z,1015.65
2017-12-24T04:31:53.584Z,1015.61
2017-12-24T04:32:53.610Z,1015.50
2017-12-24T04:33:53.636Z,1015.61
2017-12-24T04:35:14.663Z,1015.59
2017-12-24T04:35:53.674Z,1015.64
2017-12-24T04:36:53.720Z,1015.64
2017-12-24T04:37:53.724Z,1015.62
2017-12-24T04:38:53.812Z,1015.67
2017-12-24T04:39:53.771Z,1015.65
2017-12-24T04:41:14.809Z,1015.60
2017-12-24T04:41:53.814Z,1015.62
2017-12-24T04:42:53.835Z,1015.62
2017-12-24T04:43:53.864Z,1015.62
2017-12-24T04:44:53.884Z,1015.47
2017-12-24T04:45:53.913Z,1015.60
2017-12-24T04:47:14.948Z,1015.64
2017-12-24T04:47:53.979Z,1015.63
2017-12-24T04:48:53.977Z,1015.62
2017-12-24T04:49:54.018Z,1015.60
2017-12-24T04:50:54.027Z,1015.58
2017-12-24T04:51:54.060Z,1015.58
2017-12-24T04:53:15.100Z,1015.72
2017-12-24T04:53:54.094Z,1015.63
2017-12-24T04:54:54.122Z,1015.48
2017-12-24T04:55:54.159Z,1015.57
2017-12-24T04:56:54.166Z,1015.59
2017-12-24T04:57:54.194Z,1015.62
2017-12-24T04:59:15.236Z,1015.72
2017-12-24T04:59:54.236Z,1015.69
2017-12-24T05:00:54.916Z,1015.79
2017-12-24T05:01:54.280Z,1015.72
2017-12-24T05:02:54.316Z,1015.77
2017-12-24T05:03:54.329Z,1015.82
2017-12-24T05:05:15.371Z,1015.72
2017-12-24T05:05:54.373Z,1015.78
2017-12-24T05:06:54.409Z,1015.78
2017-12-24T05:07:54.426Z,1015.81
2017-12-24T05:08:54.454Z,1015.79
2017-12-24T05:09:54.469Z,1015.98
2017-12-24T05:11:15.547Z,1015.75
2017-12-24T05:11:54.519Z,1015.80
2017-12-24T05:12:54.540Z,1015.80
2017-12-24T05:13:54.565Z,1015.82
2017-12-24T05:14:54.599Z,1015.90
2017-12-24T05:15:54.612Z,1015.82
2017-12-24T05:17:15.648Z,1015.72
2017-12-24T05:17:54.655Z,1015.80
2017-12-24T05:18:54.685Z,1015.73
2017-12-24T05:19:54.703Z,1015.78
2017-12-24T05:20:54.725Z,1015.78
2017-12-24T05:21:54.753Z,1015.79
2017-12-24T05:23:15.798Z,1015.76
2017-12-24T05:23:54.801Z,1015.86
2017-12-24T05:24:54.816Z,1015.82
2017-12-24T05:25:54.844Z,1015.84
2017-12-24T05:26:54.866Z,1015.83
2017-12-24T05:27:54.890Z,1015.76
2017-12-24T05:29:15.929Z,1015.61
2017-12-24T05:29:54.934Z,1015.73
2017-12-24T05:30:54.952Z,1015.72
2017-12-24T05:31:54.986Z,1015.80
2017-12-24T05:32:55.004Z,1015.70
2017-12-24T05:33:55.029Z,1015.82
2017-12-24T05:35:16.079Z,1015.58
2017-12-24T05:35:55.082Z,1015.67
2017-12-24T05:36:55.104Z,1015.70
2017-12-24T05:37:55.139Z,1015.77
2017-12-24T05:38:55.151Z,1015.78
2017-12-24T05:39:55.187Z,1015.75
2017-12-24T05:41:16.216Z,1015.67
2017-12-24T05:41:55.228Z,1015.72
2017-12-24T05:42:55.241Z,1015.83
2017-12-24T05:43:55.264Z,1015.85
2017-12-24T05:44:55.302Z,1015.86
2017-12-24T05:45:55.312Z,1015.83
2017-12-24T05:47:16.359Z,1015.88
2017-12-24T05:47:55.357Z,1015.89
2017-12-24T05:48:55.385Z,1015.82
2017-12-24T05:49:55.402Z,1015.86
2017-12-24T05:50:55.431Z,1015.80
2017-12-24T05:51:55.464Z,1015.81
2017-12-24T05:53:16.488Z,1015.83
2017-12-24T05:53:55.496Z,1015.83
2017-12-24T05:54:55.530Z,1015.67
2017-12-24T05:55:55.544Z,1015.85
2017-12-24T05:56:55.569Z,1015.78
2017-12-24T05:57:56.416Z,1015.80
2017-12-24T05:59:16.638Z,1015.79
2017-12-24T05:59:55.663Z,1015.82
2017-12-24T06:00:55.665Z,1015.77
2017-12-24T06:01:55.688Z,1015.81
2017-12-24T06:02:55.706Z,1015.75
2017-12-24T06:03:55.779Z,1015.73
2017-12-24T06:05:16.770Z,1015.72
2017-12-24T06:05:55.780Z,1015.76
2017-12-24T06:06:55.816Z,1015.74
2017-12-24T06:07:55.830Z,1015.77
2017-12-24T06:08:55.984Z,1015.65
2017-12-24T06:09:55.878Z,1015.81
2017-12-24T06:11:16.917Z,1015.81
2017-12-24T06:11:55.912Z,1015.80
2017-12-24T06:12:55.942Z,1015.79
2017-12-24T06:13:55.970Z,1015.77
2017-12-24T06:14:55.990Z,1015.81
2017-12-24T06:15:56.012Z,1015.83
2017-12-24T06:17:17.064Z,1015.89
2017-12-24T06:17:56.065Z,1015.80
2017-12-24T06:18:56.085Z,1015.89
2017-12-24T06:19:56.121Z,1015.86
2017-12-24T06:20:56.128Z,1015.87
2017-12-24T06:21:56.158Z,1015.89
2017-12-24T06:23:17.207Z,1015.91
2017-12-24T06:23:56.219Z,1015.92
2017-12-24T06:24:56.228Z,1015.92
2017-12-24T06:25:56.243Z,1015.93
2017-12-24T06:26:56.274Z,1015.86
2017-12-24T06:27:56.303Z,1015.85
2017-12-24T06:29:17.335Z,1015.88
2017-12-24T06:29:56.335Z,1015.85
2017-12-24T06:30:56.363Z,1015.89
2017-12-24T06:31:56.390Z,1015.93
2017-12-24T06:32:56.418Z,1015.87
2017-12-24T06:33:56.430Z,1015.89
2017-12-24T06:35:17.469Z,1015.90
2017-12-24T06:35:56.481Z,1015.86
2017-12-24T06:36:56.509Z,1015.82
2017-12-24T06:37:56.528Z,1015.81
2017-12-24T06:38:56.552Z,1015.86
2017-12-24T06:39:56.579Z,1015.77
2017-12-24T06:41:17.612Z,1015.77
2017-12-24T06:41:56.621Z,1015.79
2017-12-24T06:42:56.653Z,1015.79
2017-12-24T06:43:56.672Z,1015.78
2017-12-24T06:44:56.685Z,1015.83
2017-12-24T06:45:56.714Z,1015.81
2017-12-24T06:47:17.749Z,1015.79
2017-12-24T06:47:56.765Z,1015.78
2017-12-24T06:48:56.780Z,1015.80
2017-12-24T06:49:56.807Z,1015.75
2017-12-24T06:50:56.827Z,1015.77
2017-12-24T06:51:56.853Z,1015.85
2017-12-24T06:53:17.895Z,1015.84
2017-12-24T06:53:56.904Z,1015.86
2017-12-24T06:54:56.920Z,1015.82
2017-12-24T06:55:56.957Z,1015.85
2017-12-24T06:56:56.971Z,1015.86
2017-12-24T06:57:56.993Z,1015.85
2017-12-24T06:59:18.046Z,1015.84
2017-12-24T06:59:57.046Z,1015.89
2017-12-24T07:00:57.064Z,1015.84
2017-12-24T07:01:57.085Z,1015.89
2017-12-24T07:02:57.111Z,1015.87
2017-12-24T07:03:57.139Z,1015.84
2017-12-24T07:05:18.182Z,1015.86
2017-12-24T07:05:57.180Z,1015.75
2017-12-24T07:06:57.205Z,1015.80
2017-12-24T07:07:57.272Z,1015.79
2017-12-24T07:08:57.257Z,1015.78
2017-12-24T07:09:57.270Z,1015.72
2017-12-24T07:11:18.314Z,1015.69
2017-12-24T07:11:57.317Z,1015.67
2017-12-24T07:12:57.343Z,1015.82
2017-12-24T07:13:57.371Z,1015.85
2017-12-24T07:14:57.395Z,1015.76
2017-12-24T07:15:57.410Z,1015.84
2017-12-24T07:17:18.450Z,1015.77
2017-12-24T07:17:57.463Z,1015.86
2017-12-24T07:18:57.528Z,1015.85
2017-12-24T07:19:57.511Z,1015.81
2017-12-24T07:20:57.528Z,1015.84
2017-12-24T07:21:57.557Z,1015.83
2017-12-24T07:23:18.587Z,1015.75
2017-12-24T07:23:57.607Z,1015.76
2017-12-24T07:24:57.626Z,1015.87
2017-12-24T07:25:57.651Z,1015.82
2017-12-24T07:26:57.676Z,1015.76
2017-12-24T07:27:57.700Z,1015.82
2017-12-24T07:29:18.740Z,1015.80
2017-12-24T07:29:57.762Z,1015.80
2017-12-24T07:30:57.756Z,1015.84
2017-12-24T07:31:57.792Z,1015.82
2017-12-24T07:32:57.832Z,1015.74
2017-12-24T07:33:57.840Z,1015.79
2017-12-24T07:35:18.939Z,1015.79
2017-12-24T07:35:57.887Z,1015.75
2017-12-24T07:36:57.900Z,1015.72
2017-12-24T07:37:57.934Z,1015.74
2017-12-24T07:38:57.949Z,1015.72
2017-12-24T07:39:57.984Z,1015.74
2017-12-24T07:41:19.013Z,1015.68
2017-12-24T07:41:58.026Z,1015.74
2017-12-24T07:42:58.106Z,1015.72
2017-12-24T07:43:58.066Z,1015.66
2017-12-24T07:44:58.100Z,1015.68
2017-12-24T07:45:58.112Z,1015.72
2017-12-24T07:47:19.162Z,1015.72
2017-12-24T07:47:58.169Z,1015.72
2017-12-24T07:48:58.183Z,1015.68
2017-12-24T07:49:58.204Z,1015.74
2017-12-24T07:50:58.231Z,1015.75
2017-12-24T07:51:58.249Z,1015.72
2017-12-24T07:53:19.300Z,1015.75
2017-12-24T07:53:58.951Z,1015.73
2017-12-24T07:54:58.327Z,1015.68
2017-12-24T07:55:58.342Z,1015.69
2017-12-24T07:56:58.368Z,1015.74
2017-12-24T07:57:58.387Z,1015.68
2017-12-24T07:59:19.432Z,1015.68
2017-12-24T07:59:58.445Z,1015.61
2017-12-24T08:00:58.469Z,1015.64
2017-12-24T08:01:58.506Z,1015.64
2017-12-24T08:02:58.514Z,1015.67
2017-12-24T08:03:58.532Z,1015.70
2017-12-24T08:05:19.573Z,1015.66
2017-12-24T08:05:58.586Z,1015.69
2017-12-24T08:06:58.602Z,1015.66
2017-12-24T08:07:58.633Z,1015.67
2017-12-24T08:08:58.642Z,1015.67
2017-12-24T08:09:58.671Z,1015.68
2017-12-24T08:11:19.713Z,1015.69
2017-12-24T08:11:58.742Z,1015.64
2017-12-24T08:12:58.743Z,1015.67
2017-12-24T08:13:58.768Z,1015.55
2017-12-24T08:14:58.803Z,1015.64
2017-12-24T08:15:58.810Z,1015.72
2017-12-24T08:17:20.455Z,1015.67
2017-12-24T08:17:58.869Z,1015.67
2017-12-24T08:18:58.893Z,1015.70
2017-12-24T08:19:58.909Z,1015.67
2017-12-24T08:20:58.929Z,1015.75
2017-12-24T08:21:58.954Z,1015.69
2017-12-24T08:23:19.998Z,1015.79
2017-12-24T08:23:59.006Z,1015.64
2017-12-24T08:24:59.029Z,1015.63
2017-12-24T08:25:59.046Z,1015.68
2017-12-24T08:26:59.075Z,1015.61
2017-12-24T08:27:59.091Z,1015.64
2017-12-24T08:29:20.131Z,1015.65
2017-12-24T08:29:59.138Z,1015.65
2017-12-24T08:30:59.179Z,1015.65
2017-12-24T08:31:59.233Z,1015.59
2017-12-24T08:32:59.211Z,1015.64
2017-12-24T08:33:59.240Z,1015.61
2017-12-24T08:35:20.270Z,1015.65
2017-12-24T08:35:59.277Z,1015.63
2017-12-24T08:36:59.299Z,1015.59
2017-12-24T08:37:59.335Z,1015.61
2017-12-24T08:38:59.343Z,1015.64
2017-12-24T08:39:59.376Z,1015.60
2017-12-24T08:41:20.472Z,1015.56
2017-12-24T08:41:59.418Z,1015.56
2017-12-24T08:42:59.460Z,1015.56
2017-12-24T08:43:59.473Z,1015.63
2017-12-24T08:44:59.487Z,1015.60
2017-12-24T08:45:59.524Z,1015.60
2017-12-24T08:47:20.558Z,1015.61
2017-12-24T08:47:59.554Z,1015.67
2017-12-24T08:48:59.586Z,1015.67
2017-12-24T08:49:59.617Z,1015.70
2017-12-24T08:50:59.637Z,1015.67
2017-12-24T08:51:59.665Z,1015.67
2017-12-24T08:53:20.700Z,1015.60
2017-12-24T08:53:59.710Z,1015.70
2017-12-24T08:54:59.773Z,1015.70
2017-12-24T08:55:59.766Z,1015.63
2017-12-24T08:56:59.771Z,1015.68
2017-12-24T08:57:59.803Z,1015.70
2017-12-24T08:59:20.830Z,1015.62
2017-12-24T08:59:59.834Z,1015.69
2017-12-24T09:00:59.860Z,1015.71
2017-12-24T09:02:00.470Z,1015.70
2017-12-24T09:02:59.916Z,1015.68
2017-12-24T09:03:59.956Z,1015.72
2017-12-24T09:05:20.974Z,1015.73
2017-12-24T09:05:59.978Z,1015.74
2017-12-24T09:07:00.008Z,1015.78
2017-12-24T09:08:00.025Z,1015.74
2017-12-24T09:09:00.056Z,1015.77
2017-12-24T09:10:00.102Z,1015.81
2017-12-24T09:11:21.103Z,1015.79
2017-12-24T09:12:00.118Z,1015.84
2017-12-24T09:13:00.157Z,1015.82
2017-12-24T09:14:00.169Z,1015.89
2017-12-24T09:15:00.278Z,1015.87
2017-12-24T09:16:00.210Z,1015.89
2017-12-24T09:17:21.249Z,1015.89
2017-12-24T09:18:00.261Z,1015.93
2017-12-24T09:19:00.286Z,1015.93
2017-12-24T09:20:00.309Z,1015.87
2017-12-24T09:21:00.334Z,1015.76
2017-12-24T09:22:00.360Z,1015.86
2017-12-24T09:23:21.395Z,1015.83
2017-12-24T09:24:00.406Z,1015.92
2017-12-24T09:25:00.423Z,1015.92
2017-12-24T09:26:00.462Z,1015.91
2017-12-24T09:27:00.477Z,1015.93
2017-12-24T09:28:00.497Z,1015.83
2017-12-24T09:29:21.536Z,1015.82
2017-12-24T09:30:00.542Z,1015.80
2017-12-24T09:31:00.568Z,1015.68
2017-12-24T09:32:00.593Z,1015.77
2017-12-24T09:33:00.614Z,1015.77
2017-12-24T09:34:00.641Z,1015.78
2017-12-24T09:35:21.673Z,1015.69
2017-12-24T09:36:00.689Z,1015.74
2017-12-24T09:37:00.702Z,1015.78
2017-12-24T09:38:00.740Z,1015.74
2017-12-24T09:39:00.749Z,1015.77
2017-12-24T09:40:00.773Z,1015.74
2017-12-24T09:41:21.813Z,1015.77
2017-12-24T09:42:00.816Z,1015.86
2017-12-24T09:43:00.854Z,1015.85
2017-12-24T09:44:00.880Z,1015.85
2017-12-24T09:45:00.897Z,1015.89
2017-12-24T09:46:00.910Z,1015.85
2017-12-24T09:47:21.969Z,1015.79
2017-12-24T09:48:00.965Z,1015.80
2017-12-24T09:49:00.985Z,1015.79
2017-12-24T09:50:01.058Z,1015.75
2017-12-24T09:51:01.040Z,1015.76
2017-12-24T09:52:01.058Z,1015.79
2017-12-24T09:53:22.104Z,1015.69
2017-12-24T09:54:01.106Z,1015.79
2017-12-24T09:55:01.134Z,1015.72
2017-12-24T09:56:01.146Z,1015.73
2017-12-24T09:57:01.169Z,1015.72
2017-12-24T09:58:01.205Z,1015.76
2017-12-24T09:59:22.237Z,1015.71
2017-12-24T10:00:01.248Z,1015.72
2017-12-24T10:01:01.276Z,1015.62
2017-12-24T10:02:01.293Z,1015.70
2017-12-24T10:03:01.314Z,1015.62
2017-12-24T10:04:01.341Z,1015.68
2017-12-24T10:05:22.374Z,1015.64
2017-12-24T10:06:01.391Z,1015.66
2017-12-24T10:07:01.405Z,1015.59
2017-12-24T10:08:01.434Z,1015.60
2017-12-24T10:09:01.452Z,1015.55
2017-12-24T10:10:01.491Z,1015.56
2017-12-24T10:11:22.524Z,1015.57
2017-12-24T10:12:01.541Z,1015.48
2017-12-24T10:13:01.557Z,1015.46
2017-12-24T10:14:01.579Z,1015.50
2017-12-24T10:15:01.597Z,1015.46
2017-12-24T10:16:01.615Z,1015.51
2017-12-24T10:17:22.663Z,1015.46
2017-12-24T10:18:01.704Z,1015.50
2017-12-24T10:19:01.694Z,1015.45
2017-12-24T10:20:01.712Z,1015.40
2017-12-24T10:21:01.731Z,1015.40
2017-12-24T10:22:01.764Z,1015.39
2017-12-24T10:23:22.808Z,1015.42
2017-12-24T10:24:01.804Z,1015.27
2017-12-24T10:25:01.841Z,1015.33
2017-12-24T10:26:01.851Z,1015.34
2017-12-24T10:27:01.878Z,1015.31
2017-12-24T10:28:01.897Z,1015.33
2017-12-24T10:29:22.938Z,1015.34
2017-12-24T10:30:01.960Z,1015.33
2017-12-24T10:31:01.973Z,1015.39
2017-12-24T10:32:01.996Z,1015.30
2017-12-24T10:33:02.022Z,1015.21
2017-12-24T10:34:02.038Z,1015.25
2017-12-24T10:35:23.099Z,1015.28
2017-12-24T10:36:02.147Z,1015.26
2017-12-24T10:37:02.118Z,1015.28
2017-12-24T10:38:02.134Z,1015.33
2017-12-24T10:39:02.176Z,1015.28
2017-12-24T10:40:02.180Z,1015.27
2017-12-24T10:41:23.236Z,1015.23
2017-12-24T10:42:02.229Z,1015.20
2017-12-24T10:43:02.269Z,1015.22
2017-12-24T10:44:02.280Z,1015.12
2017-12-24T10:45:02.306Z,1015.15
2017-12-24T10:46:02.326Z,1015.14
2017-12-24T10:47:23.361Z,1015.18
2017-12-24T10:48:02.370Z,1015.15
2017-12-24T10:49:02.391Z,1015.12
2017-12-24T10:50:02.428Z,1015.13
2017-12-24T10:51:02.447Z,1015.16
2017-12-24T10:52:02.485Z,1015.09
2017-12-24T10:53:23.501Z,1015.09
2017-12-24T10:54:02.520Z,1015.14
2017-12-24T10:55:02.529Z,1015.24
2017-12-24T10:56:02.570Z,1015.16
2017-12-24T10:57:02.590Z,1015.17
2017-12-24T10:58:02.616Z,1015.21
2017-12-24T10:59:23.710Z,1015.13
2017-12-24T11:00:02.667Z,1015.12
2017-12-24T11:01:02.673Z,1015.21
2017-12-24T11:02:02.707Z,1015.23
2017-12-24T11:03:02.722Z,1015.27
2017-12-24T11:04:02.749Z,1015.29
2017-12-24T11:05:23.787Z,1015.20
2017-12-24T11:06:02.801Z,1015.24
2017-12-24T11:07:02.816Z,1015.27
2017-12-24T11:08:02.859Z,1015.34
2017-12-24T11:09:02.866Z,1015.21
2017-12-24T11:10:02.943Z,1015.14
2017-12-24T11:11:23.933Z,1015.16
2017-12-24T11:12:02.940Z,1015.17
2017-12-24T11:13:02.954Z,1015.14
2017-12-24T11:14:02.991Z,1015.12
2017-12-24T11:15:03.010Z,1015.18
2017-12-24T11:16:03.025Z,1015.04
2017-12-24T11:17:24.074Z,1015.05
2017-12-24T11:18:03.073Z,1015.08
2017-12-24T11:19:03.101Z,1015.10
2017-12-24T11:20:03.116Z,1015.08
2017-12-24T11:21:03.157Z,1015.12
2017-12-24T11:22:03.167Z,1015.05
2017-12-24T11:23:24.210Z,1014.98
2017-12-24T11:24:03.210Z,1015.02
2017-12-24T11:25:03.244Z,1014.97
2017-12-24T11:26:03.257Z,1015.02
2017-12-24T11:27:03.294Z,1015.01
2017-12-24T11:28:03.307Z,1014.96
2017-12-24T11:29:24.354Z,1014.95
2017-12-24T11:30:03.352Z,1014.96
2017-12-24T11:31:03.395Z,1014.95
2017-12-24T11:32:03.413Z,1014.95
2017-12-24T11:33:03.440Z,1014.93
2017-12-24T11:34:03.475Z,1014.81
2017-12-24T11:35:24.507Z,1014.80
2017-12-24T11:36:03.498Z,1014.82
2017-12-24T11:37:03.522Z,1014.80
2017-12-24T11:38:03.554Z,1014.74
2017-12-24T11:39:03.569Z,1014.79
2017-12-24T11:40:03.599Z,1014.73
2017-12-24T11:41:24.639Z,1014.82
2017-12-24T11:42:03.646Z,1014.84
2017-12-24T11:43:03.661Z,1014.79
2017-12-24T11:44:03.826Z,1014.82
2017-12-24T11:45:03.712Z,1014.77
2017-12-24T11:46:03.746Z,1014.82
2017-12-24T11:47:24.772Z,1014.76
2017-12-24T11:48:03.786Z,1014.81
2017-12-24T11:49:03.815Z,1014.77
2017-12-24T11:50:03.829Z,1014.77
2017-12-24T11:51:03.856Z,1014.68
2017-12-24T11:52:03.882Z,1014.71
2017-12-24T11:53:24.923Z,1014.76
2017-12-24T11:54:03.932Z,1014.80
2017-12-24T11:55:03.994Z,1014.72
2017-12-24T11:56:03.974Z,1014.73
2017-12-24T11:57:04.088Z,1014.69
2017-12-24T11:58:04.032Z,1014.66
2017-12-24T11:59:25.174Z,1014.70
2017-12-24T12:00:04.094Z,1014.60
2017-12-24T12:01:04.098Z,1014.65
2017-12-24T12:02:04.124Z,1014.60
2017-12-24T12:03:04.157Z,1014.56
2017-12-24T12:04:04.173Z,1014.58
2017-12-24T12:05:25.202Z,1014.62
2017-12-24T12:06:04.259Z,1014.52